createdAt,value
2018-03-07T00:01:50.154Z,44.17
2018-03-07T00:04:16.169Z,45.00
2018-03-07T00:06:42.185Z,41.30
2018-03-07T00:09:08.470Z,43.80
2018-03-07T00:11:34.558Z,44.37
2018-03-07T00:14:00.753Z,41.87
2018-03-07T00:16:26.756Z,47.07
2018-03-07T00:18:52.857Z,44.93
2018-03-07T00:21:18.923Z,44.50
2018-03-07T00:23:44.915Z,46.30
2018-03-07T00:26:10.930Z,47.13
2018-03-07T00:28:36.958Z,48.97
2018-03-07T00:31:02.940Z,44.47
2018-03-07T00:33:28.969Z,43.93
2018-03-07T00:35:55.011Z,40.27
2018-03-07T00:38:21.005Z,42.77
2018-03-07T00:40:47.036Z,43.83
2018-03-07T00:43:13.087Z,41.17
2018-03-07T00:45:39.172Z,41.40
2018-03-07T00:48:05.178Z,41.30
2018-03-07T00:50:31.225Z,43.50
2018-03-07T00:52:57.245Z,41.20
2018-03-07T00:55:23.266Z,43.17
2018-03-07T00:57:49.284Z,41.93
2018-03-07T01:00:15.393Z,43.50
2018-03-07T01:02:41.409Z,43.57
2018-03-07T01:05:07.430Z,42.20
2018-03-07T01:07:33.426Z,40.50
2018-03-07T01:09:59.449Z,42.10
2018-03-07T01:12:25.446Z,42.97
2018-03-07T01:14:51.437Z,45.93
2018-03-07T01:17:17.453Z,40.60
2018-03-07T01:19:43.428Z,41.90
2018-03-07T01:22:09.406Z,41.07
2018-03-07T01:24:35.421Z,43.57
2018-03-07T01:27:01.433Z,41.37
2018-03-07T01:29:27.461Z,43.00
2018-03-07T01:31:53.450Z,47.93
2018-03-07T01:34:19.435Z,40.20
2018-03-07T01:36:45.467Z,39.53
2018-03-07T01:39:11.494Z,44.07
2018-03-07T01:41:37.526Z,42.17
2018-03-07T01:44:03.498Z,44.07
2018-03-07T01:46:29.621Z,40.70
2018-03-07T01:48:55.621Z,40.93
2018-03-07T01:51:21.568Z,39.57
2018-03-07T01:53:47.644Z,43.10
2018-03-07T01:56:13.645Z,40.13
2018-03-07T01:58:39.678Z,38.67
2018-03-07T02:01:05.774Z,43.07
2018-03-07T02:03:31.789Z,46.27
2018-03-07T02:05:57.861Z,41.40
2018-03-07T02:08:23.861Z,43.20
2018-03-07T02:10:49.896Z,41.77
2018-03-07T02:13:15.918Z,44.03
2018-03-07T02:15:42.028Z,40.53
2018-03-07T02:18:08.009Z,46.10
2018-03-07T02:20:34.026Z,41.60
2018-03-07T02:23:00.223Z,45.17
2018-03-07T02:25:26.292Z,40.30
2018-03-07T02:27:52.325Z,46.17
2018-03-07T02:30:18.325Z,44.13
2018-03-07T02:32:44.423Z,41.90
2018-03-07T02:35:10.399Z,46.10
2018-03-07T02:37:36.405Z,41.60
2018-03-07T02:40:02.458Z,41.17
2018-03-07T02:42:28.503Z,44.47
2018-03-07T02:44:54.473Z,45.27
2018-03-07T02:47:20.483Z,42.97
2018-03-07T02:49:46.558Z,42.30
2018-03-07T02:52:12.488Z,45.00
2018-03-07T02:54:38.495Z,43.50
2018-03-07T02:57:04.463Z,39.13
2018-03-07T02:59:30.468Z,45.83
2018-03-07T03:01:56.461Z,41.50
2018-03-07T03:04:22.451Z,41.10
2018-03-07T03:06:48.458Z,41.00
2018-03-07T03:09:14.458Z,43.33
2018-03-07T03:11:40.438Z,39.83
2018-03-07T03:14:06.375Z,44.30
2018-03-07T03:16:32.389Z,44.00
2018-03-07T03:18:58.373Z,47.20
2018-03-07T03:21:24.424Z,43.80
2018-03-07T03:23:50.440Z,45.33
2018-03-07T03:26:16.473Z,43.03
2018-03-07T03:28:42.483Z,43.47
2018-03-07T03:31:08.540Z,43.57
2018-03-07T03:33:34.550Z,43.93
2018-03-07T03:36:00.585Z,44.60
2018-03-07T03:38:26.586Z,40.73
2018-03-07T03:40:52.592Z,47.27
2018-03-07T03:43:18.639Z,46.27
2018-03-07T03:45:44.803Z,48.90
2018-03-07T03:48:10.822Z,42.10
2018-03-07T03:50:36.848Z,41.10
2018-03-07T03:53:02.865Z,44.00
2018-03-07T03:55:28.892Z,45.90
2018-03-07T03:57:54.914Z,44.80
2018-03-07T04:00:21.497Z,40.90
2018-03-07T04:02:47.456Z,38.77
2018-03-07T04:05:13.498Z,38.77
2018-03-07T04:07:39.532Z,42.87
2018-03-07T04:10:05.523Z,42.00
2018-03-07T04:12:31.628Z,40.07
2018-03-07T04:14:57.657Z,45.20
2018-03-07T04:17:23.674Z,43.17
2018-03-07T04:19:49.666Z,42.90
2018-03-07T04:22:15.692Z,40.80
2018-03-07T04:24:41.693Z,44.30
2018-03-07T04:27:07.719Z,39.10
2018-03-07T04:29:33.739Z,40.90
2018-03-07T04:31:59.935Z,38.93
2018-03-07T04:34:25.948Z,44.77
2018-03-07T04:36:51.961Z,45.13
2018-03-07T04:39:17.977Z,45.30
2018-03-07T04:41:43.956Z,39.47
2018-03-07T04:44:09.970Z,43.47
2018-03-07T04:46:35.935Z,44.10
2018-03-07T04:49:01.930Z,42.90
2018-03-07T04:51:28.162Z,42.03
2018-03-07T04:53:54.197Z,40.97
2018-03-07T04:56:20.287Z,39.93
2018-03-07T04:58:46.332Z,44.63
2018-03-07T05:01:12.653Z,40.53
2018-03-07T05:03:38.734Z,41.33
2018-03-07T05:06:04.786Z,43.60
2018-03-07T05:08:30.797Z,40.20
2018-03-07T05:10:56.822Z,41.33
2018-03-07T05:13:22.836Z,42.73
2018-03-07T05:15:48.849Z,41.17
2018-03-07T05:18:15.249Z,41.40
2018-03-07T05:20:41.249Z,43.50
2018-03-07T05:23:07.245Z,40.80
2018-03-07T05:25:33.340Z,41.40
2018-03-07T05:27:59.372Z,38.50
2018-03-07T05:30:25.423Z,40.73
2018-03-07T05:32:51.435Z,41.70
2018-03-07T05:35:17.507Z,40.40
2018-03-07T05:37:43.463Z,40.70
2018-03-07T05:40:09.454Z,45.70
2018-03-07T05:42:35.551Z,42.63
2018-03-07T05:45:01.566Z,41.43
2018-03-07T05:47:27.527Z,41.17
2018-03-07T05:49:53.597Z,45.47
2018-03-07T05:52:19.613Z,40.67
2018-03-07T05:54:45.599Z,42.40
2018-03-07T05:57:11.641Z,42.87
2018-03-07T05:59:37.626Z,44.00
2018-03-07T06:02:03.636Z,43.17
2018-03-07T06:04:29.691Z,42.40
2018-03-07T06:06:55.775Z,43.10
2018-03-07T06:09:21.729Z,42.27
2018-03-07T06:11:47.811Z,44.33
2018-03-07T06:14:14.680Z,42.30
2018-03-07T06:16:40.673Z,44.30
2018-03-07T06:19:06.711Z,42.27
2018-03-07T06:21:32.766Z,41.20
2018-03-07T06:23:58.767Z,41.77
2018-03-07T06:26:24.706Z,44.17
2018-03-07T06:28:50.722Z,48.10
2018-03-07T06:31:16.802Z,45.83
2018-03-07T06:33:42.832Z,43.67
2018-03-07T06:36:08.853Z,43.87
2018-03-07T06:38:34.945Z,42.60
2018-03-07T06:41:01.413Z,45.20
2018-03-07T06:43:27.447Z,43.70
2018-03-07T06:45:53.482Z,47.13
2018-03-07T06:48:19.516Z,45.40
2018-03-07T06:50:45.534Z,44.23
2018-03-07T06:53:11.589Z,38.70
2018-03-07T06:55:37.633Z,41.90
2018-03-07T06:58:03.671Z,36.03
2018-03-07T07:00:29.652Z,37.50
2018-03-07T07:02:55.670Z,33.67
2018-03-07T07:05:21.726Z,36.20
2018-03-07T07:07:47.741Z,31.80
2018-03-07T07:10:13.780Z,27.37
2018-03-07T07:12:39.817Z,25.47
2018-03-07T07:15:05.910Z,25.90
2018-03-07T07:17:31.960Z,21.97
2018-03-07T07:19:57.960Z,24.03
2018-03-07T07:22:24.046Z,22.73
2018-03-07T07:24:50.062Z,25.10
2018-03-07T07:27:16.116Z,23.10
2018-03-07T07:29:42.099Z,25.53
2018-03-07T07:32:08.117Z,25.80
2018-03-07T07:34:34.146Z,24.80
2018-03-07T07:37:00.177Z,26.60
2018-03-07T07:39:26.218Z,26.67
2018-03-07T07:41:52.222Z,28.97
2018-03-07T07:44:18.248Z,30.30
2018-03-07T07:46:44.251Z,32.33
2018-03-07T07:49:10.318Z,30.00
2018-03-07T07:51:36.405Z,29.40
2018-03-07T07:54:02.482Z,28.67
2018-03-07T07:56:28.525Z,32.50
2018-03-07T07:58:54.490Z,30.10
2018-03-07T08:01:20.531Z,32.47
2018-03-07T08:03:46.546Z,31.40
2018-03-07T08:06:12.577Z,32.00
2018-03-07T08:08:38.565Z,33.47
2018-03-07T08:11:04.534Z,34.93
2018-03-07T08:13:30.577Z,40.00
2018-03-07T08:15:56.587Z,40.17
2018-03-07T08:18:22.603Z,36.50
2018-03-07T08:20:48.656Z,42.53
2018-03-07T08:23:14.671Z,37.83
2018-03-07T08:25:40.681Z,35.27
2018-03-07T08:28:06.732Z,37.40
2018-03-07T08:30:32.733Z,35.00
2018-03-07T08:32:58.741Z,34.53
2018-03-07T08:35:24.764Z,38.77
2018-03-07T08:37:50.768Z,34.90
2018-03-07T08:40:16.778Z,35.83
2018-03-07T08:42:42.835Z,37.57
2018-03-07T08:45:08.827Z,36.80
2018-03-07T08:47:34.821Z,38.87
2018-03-07T08:50:00.857Z,32.23
2018-03-07T08:52:26.889Z,34.70
2018-03-07T08:54:52.925Z,34.20
2018-03-07T08:57:18.977Z,35.87
2018-03-07T08:59:44.978Z,33.30
2018-03-07T09:02:10.993Z,32.70
2018-03-07T09:04:36.989Z,34.10
2018-03-07T09:07:03.020Z,33.10
2018-03-07T09:09:29.042Z,32.37
2018-03-07T09:11:54.997Z,31.40
2018-03-07T09:14:21.026Z,30.07
2018-03-07T09:16:47.033Z,30.13
2018-03-07T09:19:13.024Z,24.50
2018-03-07T09:21:39.018Z,26.37
2018-03-07T09:24:05.096Z,27.07
2018-03-07T09:26:31.140Z,23.70
2018-03-07T09:28:57.156Z,25.57
2018-03-07T09:31:23.204Z,23.87
2018-03-07T09:33:49.184Z,22.60
2018-03-07T09:36:15.242Z,29.50
2018-03-07T09:38:41.263Z,26.67
2018-03-07T09:41:07.305Z,24.40
2018-03-07T09:43:33.438Z,23.63
2018-03-07T09:45:59.496Z,21.50
2018-03-07T09:48:25.500Z,25.20
2018-03-07T09:50:51.503Z,23.20
2018-03-07T09:53:17.553Z,22.07
2018-03-07T09:55:43.609Z,18.20
2018-03-07T09:58:09.645Z,21.43
2018-03-07T10:00:35.656Z,17.80
2018-03-07T10:03:01.694Z,23.90
2018-03-07T10:05:27.722Z,18.07
2018-03-07T10:07:53.734Z,20.50
2018-03-07T10:10:19.730Z,21.13
2018-03-07T10:12:45.749Z,19.20
2018-03-07T10:15:11.761Z,18.47
2018-03-07T10:17:37.809Z,21.53
2018-03-07T10:20:03.969Z,20.10
2018-03-07T10:22:29.915Z,17.33
2018-03-07T10:24:55.898Z,19.03
2018-03-07T10:27:21.946Z,19.40
2018-03-07T10:29:47.980Z,16.80
2018-03-07T10:32:13.983Z,17.70
2018-03-07T10:34:40.018Z,20.30
2018-03-07T10:37:06.028Z,17.20
2018-03-07T10:39:32.037Z,17.10
2018-03-07T10:41:58.049Z,18.23
2018-03-07T10:44:24.090Z,14.37
2018-03-07T10:46:50.109Z,15.80
2018-03-07T10:49:16.270Z,14.03
2018-03-07T10:51:42.243Z,14.77
2018-03-07T10:54:08.213Z,14.50
2018-03-07T10:56:34.252Z,15.40
2018-03-07T10:59:00.292Z,15.13
2018-03-07T11:01:26.292Z,13.03
2018-03-07T11:03:52.320Z,13.00
2018-03-07T11:06:18.353Z,13.53
2018-03-07T11:08:44.438Z,12.87
2018-03-07T11:11:10.518Z,18.03
2018-03-07T11:13:36.501Z,10.73
2018-03-07T11:16:02.533Z,13.80
2018-03-07T11:18:28.482Z,12.83
2018-03-07T11:20:54.452Z,12.33
2018-03-07T11:23:20.488Z,10.90
2018-03-07T11:25:46.506Z,11.57
2018-03-07T11:28:12.543Z,10.47
2018-03-07T11:30:38.553Z,7.70
2018-03-07T11:33:04.553Z,10.17
2018-03-07T11:35:30.558Z,9.23
2018-03-07T11:37:56.572Z,8.47
2018-03-07T11:40:22.582Z,6.07
2018-03-07T11:42:48.608Z,8.33
2018-03-07T11:45:14.590Z,8.53
2018-03-07T11:47:40.649Z,9.03
2018-03-07T11:50:06.675Z,7.77
2018-03-07T11:52:32.681Z,8.57
2018-03-07T11:54:58.721Z,11.00
2018-03-07T11:57:24.734Z,8.63
2018-03-07T11:59:50.778Z,8.77
2018-03-07T12:02:16.801Z,6.13
2018-03-07T12:04:42.840Z,7.10
2018-03-07T12:07:08.885Z,9.73
2018-03-07T12:09:34.838Z,9.77
2018-03-07T12:12:00.927Z,8.70
2018-03-07T12:14:26.949Z,9.87
2018-03-07T12:16:52.955Z,9.83
2018-03-07T12:19:18.993Z,10.00
2018-03-07T12:21:45.024Z,9.00
2018-03-07T12:24:11.042Z,9.87
2018-03-07T12:26:37.122Z,8.03
2018-03-07T12:29:03.177Z,9.30
2018-03-07T12:31:29.185Z,10.80
2018-03-07T12:33:55.225Z,8.20
2018-03-07T12:36:21.258Z,9.87
2018-03-07T12:38:47.300Z,10.77
2018-03-07T12:41:13.340Z,9.57
2018-03-07T12:43:39.354Z,10.83
2018-03-07T12:46:05.350Z,9.63
2018-03-07T12:48:31.360Z,9.47
2018-03-07T12:50:57.437Z,9.60
2018-03-07T12:53:23.488Z,9.03
2018-03-07T12:55:49.492Z,7.60
2018-03-07T12:58:15.562Z,8.60
2018-03-07T13:00:41.604Z,9.20
2018-03-07T13:03:07.645Z,7.17
2018-03-07T13:05:33.689Z,6.90
2018-03-07T13:07:59.725Z,5.83
2018-03-07T13:10:25.764Z,7.37
2018-03-07T13:12:51.803Z,7.40
2018-03-07T13:15:17.809Z,6.80
2018-03-07T13:17:43.813Z,6.47
2018-03-07T13:20:09.837Z,6.63
2018-03-07T13:22:35.849Z,6.33
2018-03-07T13:25:01.854Z,6.57
2018-03-07T13:27:27.905Z,7.20
2018-03-07T13:29:54.035Z,6.10
2018-03-07T13:32:20.027Z,4.40
2018-03-07T13:34:46.080Z,4.83
2018-03-07T13:37:12.086Z,5.90
2018-03-07T13:39:38.084Z,5.60
2018-03-07T13:42:04.049Z,5.97
2018-03-07T13:44:30.058Z,4.93
2018-03-07T13:46:56.096Z,5.43
2018-03-07T13:49:22.123Z,5.30
2018-03-07T13:51:48.087Z,4.67
2018-03-07T13:54:14.105Z,5.00
2018-03-07T13:56:40.164Z,6.17
2018-03-07T13:59:06.187Z,4.67
2018-03-07T14:01:32.154Z,4.80
2018-03-07T14:03:58.176Z,4.80
2018-03-07T14:06:24.194Z,5.50
2018-03-07T14:08:50.265Z,4.43
2018-03-07T14:11:16.297Z,4.70
2018-03-07T14:13:42.294Z,5.47
2018-03-07T14:16:08.317Z,10.97
2018-03-07T14:18:34.314Z,18.80
2018-03-07T14:21:00.345Z,27.27
2018-03-07T14:23:26.373Z,17.83
2018-03-07T14:25:52.389Z,9.50
2018-03-07T14:28:18.433Z,4.17
2018-03-07T14:30:44.397Z,5.13
2018-03-07T14:33:10.446Z,4.57
2018-03-07T14:35:36.474Z,4.47
2018-03-07T14:38:02.537Z,4.70
2018-03-07T14:40:28.676Z,6.30
2018-03-07T14:42:54.717Z,4.70
2018-03-07T14:45:20.717Z,4.50
2018-03-07T14:47:46.803Z,4.23
2018-03-07T14:50:12.793Z,5.00
2018-03-07T14:52:38.790Z,5.90
2018-03-07T14:55:04.958Z,5.60
2018-03-07T14:57:30.928Z,4.70
2018-03-07T14:59:56.969Z,5.20
2018-03-07T15:02:23.001Z,4.13
2018-03-07T15:04:48.991Z,4.07
2018-03-07T15:07:15.079Z,6.40
2018-03-07T15:09:41.129Z,4.90
2018-03-07T15:12:07.226Z,5.80
2018-03-07T15:14:33.177Z,5.33
2018-03-07T15:16:59.259Z,4.40
2018-03-07T15:19:25.272Z,5.03
2018-03-07T15:21:51.266Z,4.63
2018-03-07T15:24:17.302Z,5.10
2018-03-07T15:26:43.402Z,3.13
2018-03-07T15:29:09.442Z,3.53
2018-03-07T15:31:35.481Z,3.07
2018-03-07T15:34:01.585Z,2.40
2018-03-07T15:36:27.617Z,2.70
2018-03-07T15:38:53.708Z,2.50
2018-03-07T15:41:19.726Z,3.50
2018-03-07T15:43:45.740Z,2.33
2018-03-07T15:46:11.858Z,2.43
2018-03-07T15:48:37.878Z,3.97
2018-03-07T15:51:03.933Z,2.97
2018-03-07T15:53:30.027Z,3.70
2018-03-07T15:55:56.140Z,3.50
2018-03-07T15:58:22.177Z,3.30
2018-03-07T16:00:48.267Z,3.73
2018-03-07T16:03:14.655Z,3.50
2018-03-07T16:05:40.688Z,4.10
2018-03-07T16:08:06.707Z,2.90
2018-03-07T16:10:32.661Z,3.40
2018-03-07T16:12:58.729Z,4.47
2018-03-07T16:15:24.813Z,3.10
2018-03-07T16:17:50.965Z,3.50
2018-03-07T16:20:17.006Z,2.80
2018-03-07T16:22:43.030Z,2.33
2018-03-07T16:25:09.213Z,2.50
2018-03-07T16:27:35.262Z,2.50
2018-03-07T16:30:01.988Z,2.73
2018-03-07T16:32:28.042Z,2.50
2018-03-07T16:34:54.116Z,5.20
2018-03-07T16:37:20.231Z,2.30
2018-03-07T16:39:46.283Z,3.83
2018-03-07T16:42:12.364Z,3.20
2018-03-07T16:44:38.445Z,3.50
2018-03-07T16:47:04.538Z,3.30
2018-03-07T16:49:30.612Z,3.73
2018-03-07T16:51:56.685Z,2.60
2018-03-07T16:54:22.736Z,2.87
2018-03-07T16:56:48.839Z,3.60
2018-03-07T16:59:14.922Z,4.67
2018-03-07T17:01:40.991Z,3.87
2018-03-07T17:04:07.013Z,4.47
2018-03-07T17:06:33.108Z,5.90
2018-03-07T17:08:59.154Z,4.13
2018-03-07T17:11:25.122Z,4.00
2018-03-07T17:13:51.169Z,9.33
2018-03-07T17:16:17.190Z,6.73
2018-03-07T17:18:43.230Z,5.73
2018-03-07T17:21:09.325Z,6.17
2018-03-07T17:23:35.580Z,9.20
2018-03-07T17:26:01.646Z,7.13
2018-03-07T17:28:27.649Z,11.40
2018-03-07T17:30:53.657Z,8.63
2018-03-07T17:33:19.663Z,9.70
2018-03-07T17:35:45.737Z,8.73
2018-03-07T17:38:11.809Z,9.20
2018-03-07T17:40:37.902Z,7.00
2018-03-07T17:43:04.062Z,7.10
2018-03-07T17:45:30.107Z,6.87
2018-03-07T17:47:56.126Z,6.03
2018-03-07T17:50:22.173Z,7.47
2018-03-07T17:52:48.193Z,8.53
2018-03-07T17:55:14.300Z,10.30
2018-03-07T17:57:40.310Z,11.23
2018-03-07T18:00:06.449Z,10.27
2018-03-07T18:02:32.489Z,12.30
2018-03-07T18:04:58.547Z,14.00
2018-03-07T18:07:24.661Z,12.77
2018-03-07T18:09:50.708Z,11.67
2018-03-07T18:12:16.743Z,33.90
2018-03-07T18:14:42.810Z,18.70
2018-03-07T18:17:08.919Z,16.17
2018-03-07T18:19:35.016Z,18.87
2018-03-07T18:22:01.104Z,17.77
2018-03-07T18:24:27.157Z,17.40
2018-03-07T18:26:53.204Z,14.03
2018-03-07T18:29:19.275Z,11.00
2018-03-07T18:31:45.299Z,5.80
2018-03-07T18:34:11.309Z,6.90
2018-03-07T18:36:37.372Z,9.97
2018-03-07T18:39:03.399Z,20.77
2018-03-07T18:41:29.398Z,24.53
2018-03-07T18:43:55.512Z,25.37
2018-03-07T18:46:21.581Z,22.53
2018-03-07T18:48:47.690Z,18.90
2018-03-07T18:51:13.767Z,14.83
2018-03-07T18:53:39.869Z,12.30
2018-03-07T18:56:05.958Z,8.90
2018-03-07T18:58:32.053Z,8.40
2018-03-07T19:00:58.180Z,8.30
2018-03-07T19:03:24.310Z,8.40
2018-03-07T19:05:50.353Z,8.20
2018-03-07T19:08:17.703Z,6.20
2018-03-07T19:10:43.869Z,5.80
2018-03-07T19:13:09.920Z,8.77
2018-03-07T19:15:35.954Z,7.90
2018-03-07T19:18:02.016Z,6.80
2018-03-07T19:20:28.047Z,7.90
2018-03-07T19:22:54.386Z,7.93
2018-03-07T19:25:20.474Z,5.77
2018-03-07T19:27:46.568Z,4.60
2018-03-07T19:30:12.502Z,3.10
2018-03-07T19:32:38.522Z,7.60
2018-03-07T19:35:04.635Z,8.50
2018-03-07T19:37:30.654Z,11.30
2018-03-07T19:39:56.722Z,6.77
2018-03-07T19:42:22.743Z,5.40
2018-03-07T19:44:48.823Z,4.37
2018-03-07T19:47:14.942Z,5.90
2018-03-07T19:49:41.081Z,6.87
2018-03-07T19:52:07.314Z,10.00
2018-03-07T19:54:36.533Z,7.33
2018-03-07T19:57:02.636Z,10.33
2018-03-07T19:59:28.685Z,11.13
2018-03-07T20:01:54.705Z,12.30
2018-03-07T20:04:20.776Z,12.53
2018-03-07T20:06:46.831Z,12.17
2018-03-07T20:09:12.839Z,11.80
2018-03-07T20:11:38.977Z,13.27
2018-03-07T20:14:05.010Z,14.83
2018-03-07T20:16:31.054Z,21.40
2018-03-07T20:18:57.248Z,20.20
2018-03-07T20:21:23.317Z,18.90
2018-03-07T20:23:49.333Z,15.90
2018-03-07T20:26:15.277Z,10.40
2018-03-07T20:28:42.318Z,8.80
2018-03-07T20:31:08.466Z,7.50
2018-03-07T20:33:34.438Z,8.87
2018-03-07T20:36:00.480Z,9.13
2018-03-07T20:38:26.530Z,8.97
2018-03-07T20:40:52.537Z,9.50
2018-03-07T20:43:18.621Z,8.07
2018-03-07T20:45:44.675Z,8.07
2018-03-07T20:48:10.724Z,10.73
2018-03-07T20:50:36.769Z,8.60
2018-03-07T20:53:02.825Z,9.80
2018-03-07T20:55:28.862Z,9.63
2018-03-07T20:57:54.849Z,11.47
2018-03-07T21:00:20.940Z,14.27
2018-03-07T21:02:47.013Z,12.43
2018-03-07T21:05:13.093Z,10.37
2018-03-07T21:07:39.072Z,9.30
2018-03-07T21:10:05.094Z,9.57
2018-03-07T21:12:31.058Z,17.83
2018-03-07T21:14:57.074Z,23.40
2018-03-07T21:17:23.076Z,25.23
2018-03-07T21:19:49.084Z,26.00
2018-03-07T21:22:15.161Z,23.17
2018-03-07T21:24:41.174Z,18.97
2018-03-07T21:27:07.209Z,18.63
2018-03-07T21:29:33.217Z,12.43
2018-03-07T21:31:59.199Z,7.67
2018-03-07T21:34:25.246Z,6.13
2018-03-07T21:36:51.303Z,4.87
2018-03-07T21:39:17.273Z,2.93
2018-03-07T21:41:43.294Z,3.33
2018-03-07T21:44:09.322Z,4.50
2018-03-07T21:46:35.377Z,3.23
2018-03-07T21:49:01.403Z,4.07
2018-03-07T21:51:28.345Z,17.97
2018-03-07T21:53:54.313Z,60.70
2018-03-07T21:56:20.370Z,82.17
2018-03-07T21:58:46.393Z,92.40
2018-03-07T22:01:12.521Z,63.63
2018-03-07T22:03:38.524Z,30.40
2018-03-07T22:06:04.548Z,21.17
2018-03-07T22:08:30.629Z,10.63
2018-03-07T22:10:56.620Z,9.47
2018-03-07T22:13:22.619Z,4.27
2018-03-07T22:15:48.613Z,2.90
2018-03-07T22:18:14.633Z,2.00
2018-03-07T22:20:40.575Z,3.20
2018-03-07T22:23:06.646Z,3.17
2018-03-07T22:25:32.673Z,2.93
2018-03-07T22:27:58.691Z,3.10
2018-03-07T22:30:24.737Z,3.73
2018-03-07T22:32:50.784Z,3.30
2018-03-07T22:35:16.797Z,2.70
2018-03-07T22:37:42.842Z,3.37
2018-03-07T22:40:08.870Z,3.20
2018-03-07T22:42:34.859Z,3.00
2018-03-07T22:45:00.881Z,3.83
2018-03-07T22:47:26.901Z,2.27
2018-03-07T22:49:52.909Z,2.40
2018-03-07T22:52:18.921Z,2.77
2018-03-07T22:54:44.956Z,2.63
2018-03-07T22:57:10.996Z,2.30
2018-03-07T22:59:37.093Z,2.23
2018-03-07T23:02:03.062Z,1.90
2018-03-07T23:04:36.222Z,3.20
2018-03-07T23:07:02.259Z,2.27
2018-03-07T23:09:28.258Z,2.30
2018-03-07T23:11:54.282Z,2.63
2018-03-07T23:14:20.295Z,2.20
2018-03-07T23:16:46.306Z,1.90
2018-03-07T23:19:12.273Z,2.50
2018-03-07T23:21:38.253Z,2.30
2018-03-07T23:24:04.300Z,2.47
2018-03-07T23:26:30.394Z,1.80
2018-03-07T23:28:56.382Z,2.33
2018-03-07T23:31:22.394Z,2.37
2018-03-07T23:33:48.497Z,2.00
2018-03-07T23:36:14.489Z,2.30
2018-03-07T23:38:40.512Z,2.10
2018-03-07T23:41:06.521Z,2.60
2018-03-07T23:43:32.525Z,2.30
2018-03-07T23:45:58.549Z,2.33
2018-03-07T23:48:24.588Z,2.60
2018-03-07T23:50:50.629Z,2.80
2018-03-07T23:53:16.755Z,1.80
2018-03-07T23:55:42.690Z,2.37
2018-03-07T23:58:08.673Z,2.10
